createdAt,value
2023-04-27T00:02:22.999Z,6.72
2023-04-27T00:07:19.493Z,10.68
2023-04-27T00:12:15.880Z,6.68
2023-04-27T00:17:12.332Z,9.05
2023-04-27T00:22:09.374Z,5.70
2023-04-27T00:27:05.801Z,12.40
2023-04-27T00:32:02.348Z,10.40
2023-04-27T00:36:58.809Z,6.13
2023-04-27T00:41:55.334Z,9.20
2023-04-27T00:46:55.428Z,6.10
2023-04-27T00:51:51.847Z,9.07
2023-04-27T00:56:50.040Z,9.82
2023-04-27T01:01:47.222Z,10.60
2023-04-27T01:06:43.945Z,5.93
2023-04-27T01:11:40.440Z,7.78
2023-04-27T01:16:37.401Z,6.93
2023-04-27T01:21:34.108Z,10.98
2023-04-27T01:26:30.573Z,8.57
2023-04-27T01:31:27.040Z,8.88
2023-04-27T01:36:23.517Z,7.13
2023-04-27T01:41:19.892Z,6.63
2023-04-27T01:46:16.386Z,8.65
2023-04-27T01:51:12.988Z,9.65
2023-04-27T01:56:10.169Z,8.55
2023-04-27T02:01:06.558Z,15.18
2023-04-27T02:06:06.400Z,7.85
2023-04-27T02:11:02.957Z,11.38
2023-04-27T02:16:04.191Z,10.65
2023-04-27T02:21:01.019Z,7.05
2023-04-27T02:25:57.430Z,9.77
2023-04-27T02:30:53.997Z,6.72
2023-04-27T02:35:50.458Z,8.88
2023-04-27T02:40:47.036Z,6.25
2023-04-27T02:45:43.464Z,9.73
2023-04-27T02:50:44.160Z,8.32
2023-04-27T02:55:47.112Z,6.95
2023-04-27T03:00:43.902Z,6.10
2023-04-27T03:05:40.924Z,9.10
2023-04-27T03:10:37.382Z,7.55
2023-04-27T03:15:34.635Z,8.68
2023-04-27T03:20:31.911Z,6.82
2023-04-27T03:25:28.338Z,7.15
2023-04-27T03:30:24.761Z,8.10
2023-04-27T03:35:21.480Z,7.38
2023-04-27T03:40:17.904Z,10.27
2023-04-27T03:45:16.684Z,9.73
2023-04-27T03:50:13.129Z,9.32
2023-04-27T03:55:10.887Z,9.70
2023-04-27T04:00:11.583Z,10.88
2023-04-27T04:05:09.866Z,8.00
2023-04-27T04:10:09.379Z,9.15
2023-04-27T04:15:07.703Z,7.32
2023-04-27T04:20:10.626Z,6.95
2023-04-27T04:25:07.444Z,10.90
2023-04-27T04:30:06.455Z,12.68
2023-04-27T04:35:05.120Z,14.13
2023-04-27T04:40:09.076Z,10.90
2023-04-27T04:45:07.035Z,10.35
2023-04-27T04:50:03.997Z,12.15
2023-04-27T04:55:00.732Z,8.88
2023-04-27T04:59:57.648Z,10.40
2023-04-27T05:04:54.199Z,13.88
2023-04-27T05:09:50.701Z,16.98
2023-04-27T05:14:48.274Z,11.75
2023-04-27T05:19:44.966Z,12.25
2023-04-27T05:24:41.728Z,10.30
2023-04-27T05:29:38.205Z,13.18
2023-04-27T05:34:34.885Z,13.70
2023-04-27T05:39:32.663Z,11.40
2023-04-27T05:44:35.837Z,8.90
2023-04-27T05:49:35.762Z,11.88
2023-04-27T05:54:37.385Z,15.50
2023-04-27T05:59:47.160Z,10.18
2023-04-27T06:04:49.971Z,12.55
2023-04-27T06:09:47.704Z,10.75
2023-04-27T06:14:52.356Z,7.63
2023-04-27T06:19:54.453Z,11.73
2023-04-27T06:24:57.643Z,11.38
2023-04-27T06:29:56.873Z,9.15
2023-04-27T06:34:53.735Z,10.40
2023-04-27T06:39:53.253Z,8.90
2023-04-27T06:44:54.210Z,8.10
2023-04-27T06:49:51.275Z,11.55
2023-04-27T06:54:59.121Z,10.23
2023-04-27T06:59:59.142Z,9.55
2023-04-27T07:04:59.110Z,9.80
2023-04-27T07:09:58.215Z,14.73
2023-04-27T07:15:04.571Z,13.20
2023-04-27T07:20:05.008Z,12.48
2023-04-27T07:25:10.794Z,8.68
2023-04-27T07:30:13.484Z,9.90
2023-04-27T07:35:15.224Z,9.38
2023-04-27T07:40:19.864Z,6.80
2023-04-27T07:45:32.679Z,9.57
2023-04-27T07:50:33.940Z,8.38
2023-04-27T07:55:35.773Z,5.93
2023-04-27T08:00:34.712Z,9.13
2023-04-27T08:05:37.685Z,8.55
2023-04-27T08:10:40.668Z,6.50
2023-04-27T08:15:42.219Z,6.63
2023-04-27T08:20:46.583Z,7.33
2023-04-27T08:25:45.796Z,7.35
2023-04-27T08:30:47.353Z,10.90
2023-04-27T08:35:48.023Z,7.27
2023-04-27T08:40:53.390Z,8.27
2023-04-27T08:45:54.649Z,10.88
2023-04-27T08:50:52.505Z,9.32
2023-04-27T08:56:03.167Z,8.98
2023-04-27T09:01:11.037Z,7.03
2023-04-27T09:06:22.906Z,7.05
2023-04-27T09:11:41.031Z,7.82
2023-04-27T09:16:40.766Z,6.70
2023-04-27T09:21:49.558Z,7.45
2023-04-27T09:27:00.128Z,7.57
2023-04-27T09:32:08.720Z,8.15
2023-04-27T09:37:10.273Z,5.60
2023-04-27T09:42:12.256Z,6.20
2023-04-27T09:47:10.798Z,7.45
2023-04-27T09:52:12.767Z,7.25
2023-04-27T09:57:32.393Z,5.25
2023-04-27T10:02:46.184Z,5.70
2023-04-27T10:08:11.735Z,8.35
2023-04-27T10:13:23.084Z,8.80
2023-04-27T10:18:56.331Z,5.97
2023-04-27T10:23:55.576Z,7.20
2023-04-27T10:29:07.212Z,6.32
2023-04-27T10:34:11.949Z,8.77
2023-04-27T10:39:39.971Z,6.57
2023-04-27T10:44:45.796Z,5.95
2023-04-27T10:49:51.413Z,7.13
2023-04-27T10:54:50.560Z,7.30
2023-04-27T10:59:55.172Z,9.02
2023-04-27T11:05:07.525Z,7.30
2023-04-27T11:10:18.415Z,6.88
2023-04-27T11:15:19.727Z,13.05
2023-04-27T11:20:42.062Z,9.77
2023-04-27T11:25:46.463Z,6.35
2023-04-27T11:30:48.095Z,6.68
2023-04-27T11:35:50.829Z,7.23
2023-04-27T11:41:02.217Z,6.43
2023-04-27T11:46:11.676Z,8.68
2023-04-27T11:51:12.328Z,11.25
2023-04-27T11:56:13.644Z,7.25
2023-04-27T12:01:27.730Z,6.57
2023-04-27T12:06:33.848Z,6.75
2023-04-27T12:11:33.997Z,6.72
2023-04-27T12:16:41.477Z,7.97
2023-04-27T12:21:45.690Z,8.23
2023-04-27T12:26:50.396Z,7.15
2023-04-27T12:31:47.323Z,6.80
2023-04-27T12:36:52.793Z,5.50
2023-04-27T12:41:58.869Z,6.60
2023-04-27T12:47:02.981Z,7.88
2023-04-27T12:52:04.968Z,5.80
2023-04-27T12:57:04.168Z,7.25
2023-04-27T13:02:03.365Z,7.15
2023-04-27T13:07:02.347Z,6.03
2023-04-27T13:12:04.551Z,5.93
2023-04-27T13:17:15.440Z,9.32
2023-04-27T13:22:19.436Z,10.20
2023-04-27T13:27:17.438Z,10.20
2023-04-27T13:32:35.333Z,8.57
2023-04-27T13:37:32.662Z,7.25
2023-04-27T13:42:47.649Z,7.65
2023-04-27T13:47:47.130Z,9.95
2023-04-27T13:52:51.549Z,8.20
2023-04-27T13:57:54.097Z,7.85
2023-04-27T14:08:06.802Z,8.05
2023-04-27T14:13:09.258Z,7.53
2023-04-27T14:23:20.576Z,7.47
2023-04-27T14:28:23.160Z,7.18
2023-04-27T14:33:29.822Z,8.13
2023-04-27T14:38:30.842Z,7.90
2023-04-27T14:43:30.260Z,8.30
2023-04-27T14:48:35.732Z,7.13
2023-04-27T14:53:35.389Z,6.72
2023-04-27T14:58:37.719Z,8.07
2023-04-27T15:03:46.878Z,6.72
2023-04-27T15:08:53.417Z,9.82
2023-04-27T15:13:56.431Z,7.05
2023-04-27T15:18:58.840Z,6.38
2023-04-27T15:24:00.909Z,10.57
2023-04-27T15:29:04.595Z,10.13
2023-04-27T15:34:10.808Z,10.35
2023-04-27T15:39:10.007Z,9.57
2023-04-27T15:44:18.021Z,7.47
2023-04-27T15:49:22.742Z,9.32
2023-04-27T15:54:25.344Z,10.13
2023-04-27T15:59:25.583Z,10.27
2023-04-27T16:04:27.670Z,8.40
2023-04-27T16:09:30.393Z,7.60
2023-04-27T16:14:27.283Z,9.18
2023-04-27T16:19:29.398Z,12.23
2023-04-27T16:24:29.331Z,11.75
2023-04-27T16:29:26.806Z,11.77
2023-04-27T16:34:26.048Z,9.13
2023-04-27T16:39:31.793Z,8.18
2023-04-27T16:44:36.717Z,8.73
2023-04-27T16:49:40.607Z,9.82
2023-04-27T16:54:37.794Z,13.15
2023-04-27T16:59:37.690Z,9.35
2023-04-27T17:04:40.370Z,9.88
2023-04-27T17:09:39.834Z,11.68
2023-04-27T17:14:44.288Z,12.07
2023-04-27T17:19:45.399Z,9.45
2023-04-27T17:24:43.794Z,8.93
2023-04-27T17:29:40.632Z,10.40
2023-04-27T17:34:42.439Z,10.05
2023-04-27T17:39:45.597Z,10.23
2023-04-27T17:49:42.544Z,11.80
2023-04-27T17:54:55.076Z,11.32
2023-04-27T17:59:52.879Z,9.93
2023-04-27T18:04:55.902Z,7.80
2023-04-27T18:09:52.923Z,10.40
2023-04-27T18:14:55.591Z,11.10
2023-04-27T18:20:09.792Z,13.18
2023-04-27T18:25:11.256Z,9.63
2023-04-27T18:30:14.261Z,11.75
2023-04-27T18:35:16.227Z,11.75
2023-04-27T18:40:19.823Z,10.73
2023-04-27T18:45:29.665Z,10.13
2023-04-27T18:50:29.177Z,9.30
2023-04-27T18:55:42.412Z,12.20
2023-04-27T19:00:42.208Z,9.52
2023-04-27T19:05:43.343Z,12.68
2023-04-27T19:10:42.825Z,10.88
2023-04-27T19:15:41.951Z,12.95
2023-04-27T19:20:44.582Z,16.73
2023-04-27T19:25:41.611Z,15.38
2023-04-27T19:30:41.280Z,14.52
2023-04-27T19:35:41.600Z,13.63
2023-04-27T19:40:38.539Z,14.32
2023-04-27T19:45:39.131Z,10.07
2023-04-27T19:50:44.157Z,11.98
2023-04-27T19:55:43.756Z,9.93
2023-04-27T20:00:42.768Z,16.67
2023-04-27T20:05:45.121Z,11.15
2023-04-27T20:15:40.375Z,12.10
2023-04-27T20:20:42.773Z,11.52
2023-04-27T20:25:43.772Z,13.43
2023-04-27T20:30:44.977Z,14.15
2023-04-27T20:35:49.561Z,11.55
2023-04-27T20:40:58.550Z,15.80
2023-04-27T20:46:01.771Z,13.02
2023-04-27T20:51:01.318Z,11.18
2023-04-27T20:56:00.791Z,12.95
2023-04-27T21:01:01.484Z,14.07
2023-04-27T21:06:05.922Z,11.52
2023-04-27T21:11:08.285Z,14.73
2023-04-27T21:16:05.310Z,15.60
2023-04-27T21:21:08.111Z,13.73
2023-04-27T21:26:15.312Z,15.52
2023-04-27T21:31:14.663Z,15.00
2023-04-27T21:36:15.741Z,18.67
2023-04-27T21:41:20.555Z,17.23
2023-04-27T21:46:19.591Z,18.98
2023-04-27T21:51:19.106Z,21.40
2023-04-27T21:56:32.019Z,16.50
2023-04-27T22:06:28.514Z,20.38
2023-04-27T22:11:30.880Z,16.48
2023-04-27T22:21:46.870Z,21.23
2023-04-27T22:27:07.460Z,17.90
2023-04-27T22:32:10.467Z,14.57
2023-04-27T22:37:14.694Z,20.15
2023-04-27T22:42:15.366Z,15.18
2023-04-27T22:47:14.562Z,16.75
2023-04-27T22:52:17.346Z,18.58
2023-04-27T22:57:34.575Z,13.70
2023-04-27T23:02:34.160Z,15.77
2023-04-27T23:07:43.078Z,13.85
2023-04-27T23:12:50.075Z,16.58
2023-04-27T23:17:58.504Z,17.85
2023-04-27T23:23:00.683Z,16.58
2023-04-27T23:28:02.801Z,19.23
2023-04-27T23:33:16.400Z,15.48
2023-04-27T23:38:13.252Z,13.82
2023-04-27T23:43:12.477Z,18.75
2023-04-27T23:48:09.172Z,13.98
2023-04-27T23:53:15.944Z,19.02
2023-04-27T23:58:16.758Z,16.77
